sensor_id;sensor_type;location;lat;lon;timestamp;pressure;altitude;pressure_sealevel;temperature;humidity
8320;BME280;4197;42.130;24.746;2023-06-14T00:00:01;99143.13;;;18.92;100.00
8320;BME280;4197;42.130;24.746;2023-06-14T00:02:31;99133.75;;;18.90;100.00
8320;BME280;4197;42.130;24.746;2023-06-14T00:05:00;99130.53;;;18.95;100.00
8320;BME280;4197;42.130;24.746;2023-06-14T00:07:36;99132.41;;;19.02;100.00
8320;BME280;4197;42.130;24.746;2023-06-14T00:10:06;99138.91;;;19.11;100.00
8320;BME280;4197;42.130;24.746;2023-06-14T00:12:34;99129.22;;;19.03;100.00
8320;BME280;4197;42.130;24.746;2023-06-14T00:15:03;99133.94;;;19.03;100.00
8320;BME280;4197;42.130;24.746;2023-06-14T00:17:32;99130.19;;;18.93;100.00
8320;BME280;4197;42.130;24.746;2023-06-14T00:20:03;99127.84;;;18.91;100.00
8320;BME280;4197;42.130;24.746;2023-06-14T00:22:34;99135.31;;;18.91;100.00
8320;BME280;4197;42.130;24.746;2023-06-14T00:25:04;99133.72;;;18.93;100.00
8320;BME280;4197;42.130;24.746;2023-06-14T00:27:53;99133.03;;;18.86;100.00
8320;BME280;4197;42.130;24.746;2023-06-14T00:30:21;99129.94;;;18.84;100.00
8320;BME280;4197;42.130;24.746;2023-06-14T00:32:50;99133.50;;;18.81;100.00
8320;BME280;4197;42.130;24.746;2023-06-14T00:35:20;99131.53;;;18.81;100.00
8320;BME280;4197;42.130;24.746;2023-06-14T00:37:48;99130.66;;;18.88;100.00
8320;BME280;4197;42.130;24.746;2023-06-14T00:40:16;99132.09;;;18.96;100.00
8320;BME280;4197;42.130;24.746;2023-06-14T00:42:44;99125.66;;;18.83;100.00
8320;BME280;4197;42.130;24.746;2023-06-14T00:45:13;99118.78;;;18.94;100.00
8320;BME280;4197;42.130;24.746;2023-06-14T00:47:42;99118.41;;;18.92;100.00
8320;BME280;4197;42.130;24.746;2023-06-14T00:50:11;99102.34;;;18.91;100.00
8320;BME280;4197;42.130;24.746;2023-06-14T00:52:41;99109.34;;;18.96;100.00
8320;BME280;4197;42.130;24.746;2023-06-14T00:55:09;99108.03;;;18.80;100.00
8320;BME280;4197;42.130;24.746;2023-06-14T00:57:37;99115.63;;;18.69;100.00
8320;BME280;4197;42.130;24.746;2023-06-14T01:00:07;99110.59;;;18.64;100.00
8320;BME280;4197;42.130;24.746;2023-06-14T01:02:37;99108.09;;;18.73;100.00
8320;BME280;4197;42.130;24.746;2023-06-14T01:05:06;99116.41;;;18.69;100.00
8320;BME280;4197;42.130;24.746;2023-06-14T01:07:46;99104.81;;;18.58;100.00
8320;BME280;4197;42.130;24.746;2023-06-14T01:10:27;99109.59;;;18.54;100.00
8320;BME280;4197;42.130;24.746;2023-06-14T01:13:07;99107.56;;;18.58;100.00
8320;BME280;4197;42.130;24.746;2023-06-14T01:15:37;99107.97;;;18.57;100.00
8320;BME280;4197;42.130;24.746;2023-06-14T01:18:06;99105.53;;;18.62;100.00
8320;BME280;4197;42.130;24.746;2023-06-14T01:20:35;99102.81;;;18.62;100.00
8320;BME280;4197;42.130;24.746;2023-06-14T01:23:06;99109.94;;;18.56;100.00
8320;BME280;4197;42.130;24.746;2023-06-14T01:25:34;99105.75;;;18.48;100.00
8320;BME280;4197;42.130;24.746;2023-06-14T01:28:05;99112.03;;;18.48;100.00
8320;BME280;4197;42.130;24.746;2023-06-14T01:30:38;99103.78;;;18.48;100.00
8320;BME280;4197;42.130;24.746;2023-06-14T01:33:12;99105.34;;;18.49;100.00
8320;BME280;4197;42.130;24.746;2023-06-14T01:35:42;99100.75;;;18.43;100.00
8320;BME280;4197;42.130;24.746;2023-06-14T01:38:12;99107.09;;;18.36;100.00
8320;BME280;4197;42.130;24.746;2023-06-14T01:40:42;99101.56;;;18.40;100.00
8320;BME280;4197;42.130;24.746;2023-06-14T01:43:13;99105.25;;;18.30;100.00
8320;BME280;4197;42.130;24.746;2023-06-14T01:45:42;99102.13;;;18.27;100.00
8320;BME280;4197;42.130;24.746;2023-06-14T01:48:10;99100.94;;;18.28;100.00
8320;BME280;4197;42.130;24.746;2023-06-14T01:50:39;99100.63;;;18.23;100.00
8320;BME280;4197;42.130;24.746;2023-06-14T01:53:08;99099.13;;;18.18;100.00
8320;BME280;4197;42.130;24.746;2023-06-14T01:55:37;99094.41;;;18.19;100.00
8320;BME280;4197;42.130;24.746;2023-06-14T01:58:10;99100.09;;;18.32;100.00
8320;BME280;4197;42.130;24.746;2023-06-14T02:00:39;99099.00;;;18.29;100.00
8320;BME280;4197;42.130;24.746;2023-06-14T02:03:09;99097.84;;;18.26;100.00
8320;BME280;4197;42.130;24.746;2023-06-14T02:05:38;99101.41;;;18.23;100.00
8320;BME280;4197;42.130;24.746;2023-06-14T02:08:07;99104.03;;;18.31;100.00
8320;BME280;4197;42.130;24.746;2023-06-14T02:10:35;99105.28;;;18.26;100.00
8320;BME280;4197;42.130;24.746;2023-06-14T02:13:04;99100.63;;;18.23;100.00
8320;BME280;4197;42.130;24.746;2023-06-14T02:15:33;99106.53;;;18.21;100.00
8320;BME280;4197;42.130;24.746;2023-06-14T02:18:02;99110.78;;;18.26;100.00
8320;BME280;4197;42.130;24.746;2023-06-14T02:20:31;99106.31;;;18.36;100.00
8320;BME280;4197;42.130;24.746;2023-06-14T02:23:00;99106.41;;;18.28;100.00
8320;BME280;4197;42.130;24.746;2023-06-14T02:25:28;99105.34;;;18.22;100.00
8320;BME280;4197;42.130;24.746;2023-06-14T02:27:56;99108.09;;;18.22;100.00
8320;BME280;4197;42.130;24.746;2023-06-14T02:30:25;99108.53;;;18.17;100.00
8320;BME280;4197;42.130;24.746;2023-06-14T02:32:53;99111.72;;;18.16;100.00
8320;BME280;4197;42.130;24.746;2023-06-14T02:35:22;99108.53;;;18.17;100.00
8320;BME280;4197;42.130;24.746;2023-06-14T02:37:53;99107.38;;;18.18;100.00
8320;BME280;4197;42.130;24.746;2023-06-14T02:40:21;99105.84;;;18.14;100.00
8320;BME280;4197;42.130;24.746;2023-06-14T02:42:49;99109.81;;;18.09;100.00
8320;BME280;4197;42.130;24.746;2023-06-14T02:45:17;99115.75;;;18.08;100.00
8320;BME280;4197;42.130;24.746;2023-06-14T02:47:49;99113.78;;;18.08;100.00
8320;BME280;4197;42.130;24.746;2023-06-14T02:50:18;99111.09;;;18.04;100.00
8320;BME280;4197;42.130;24.746;2023-06-14T02:52:48;99117.72;;;18.07;100.00
8320;BME280;4197;42.130;24.746;2023-06-14T02:55:16;99116.47;;;18.12;100.00
8320;BME280;4197;42.130;24.746;2023-06-14T02:57:44;99122.78;;;18.09;100.00
8320;BME280;4197;42.130;24.746;2023-06-14T03:00:14;99122.38;;;18.10;100.00
8320;BME280;4197;42.130;24.746;2023-06-14T03:02:44;99124.34;;;18.10;100.00
8320;BME280;4197;42.130;24.746;2023-06-14T03:05:14;99132.22;;;18.08;100.00
8320;BME280;4197;42.130;24.746;2023-06-14T03:07:42;99125.56;;;18.05;100.00
8320;BME280;4197;42.130;24.746;2023-06-14T03:10:12;99129.50;;;18.04;100.00
8320;BME280;4197;42.130;24.746;2023-06-14T03:12:41;99135.31;;;18.10;100.00
8320;BME280;4197;42.130;24.746;2023-06-14T03:15:10;99134.81;;;18.18;100.00
8320;BME280;4197;42.130;24.746;2023-06-14T03:17:40;99145.41;;;18.16;100.00
8320;BME280;4197;42.130;24.746;2023-06-14T03:20:14;99138.47;;;18.08;100.00
8320;BME280;4197;42.130;24.746;2023-06-14T03:22:43;99146.25;;;18.13;100.00
8320;BME280;4197;42.130;24.746;2023-06-14T03:25:13;99140.81;;;18.10;100.00
8320;BME280;4197;42.130;24.746;2023-06-14T03:27:42;99146.63;;;18.12;100.00
8320;BME280;4197;42.130;24.746;2023-06-14T03:30:11;99144.66;;;18.12;100.00
8320;BME280;4197;42.130;24.746;2023-06-14T03:32:39;99146.63;;;18.15;100.00
8320;BME280;4197;42.130;24.746;2023-06-14T03:35:08;99151.59;;;18.24;100.00
8320;BME280;4197;42.130;24.746;2023-06-14T03:37:45;99157.16;;;18.17;100.00
8320;BME280;4197;42.130;24.746;2023-06-14T03:40:17;99153.78;;;18.05;100.00
8320;BME280;4197;42.130;24.746;2023-06-14T03:42:46;99158.25;;;17.92;100.00
8320;BME280;4197;42.130;24.746;2023-06-14T03:45:14;99168.06;;;17.90;100.00
8320;BME280;4197;42.130;24.746;2023-06-14T03:47:42;99164.81;;;18.02;100.00
8320;BME280;4197;42.130;24.746;2023-06-14T03:50:11;99172.59;;;18.07;100.00
8320;BME280;4197;42.130;24.746;2023-06-14T03:52:39;99179.16;;;18.13;100.00
8320;BME280;4197;42.130;24.746;2023-06-14T03:55:11;99183.00;;;18.19;100.00
8320;BME280;4197;42.130;24.746;2023-06-14T03:57:42;99178.97;;;18.27;100.00
8320;BME280;4197;42.130;24.746;2023-06-14T04:00:12;99184.72;;;18.37;100.00
8320;BME280;4197;42.130;24.746;2023-06-14T04:02:40;99179.88;;;18.48;100.00
8320;BME280;4197;42.130;24.746;2023-06-14T04:05:09;99186.09;;;18.52;100.00
8320;BME280;4197;42.130;24.746;2023-06-14T04:07:37;99188.28;;;18.64;100.00
8320;BME280;4197;42.130;24.746;2023-06-14T04:10:07;99183.06;;;18.73;100.00
8320;BME280;4197;42.130;24.746;2023-06-14T04:12:37;99192.03;;;18.78;100.00
8320;BME280;4197;42.130;24.746;2023-06-14T04:15:09;99191.97;;;18.81;100.00
8320;BME280;4197;42.130;24.746;2023-06-14T04:17:41;99188.69;;;18.90;100.00
8320;BME280;4197;42.130;24.746;2023-06-14T04:20:09;99190.28;;;18.91;100.00
8320;BME280;4197;42.130;24.746;2023-06-14T04:22:37;99200.13;;;18.88;100.00
8320;BME280;4197;42.130;24.746;2023-06-14T04:25:06;99198.22;;;18.85;100.00
8320;BME280;4197;42.130;24.746;2023-06-14T04:27:35;99196.22;;;18.86;100.00
8320;BME280;4197;42.130;24.746;2023-06-14T04:30:05;99195.69;;;18.94;100.00
8320;BME280;4197;42.130;24.746;2023-06-14T04:32:34;99202.84;;;19.15;100.00
8320;BME280;4197;42.130;24.746;2023-06-14T04:35:07;99199.53;;;19.01;100.00
8320;BME280;4197;42.130;24.746;2023-06-14T04:37:35;99199.06;;;19.06;100.00
8320;BME280;4197;42.130;24.746;2023-06-14T04:40:07;99199.31;;;19.15;100.00
8320;BME280;4197;42.130;24.746;2023-06-14T04:42:38;99207.16;;;19.40;100.00
8320;BME280;4197;42.130;24.746;2023-06-14T04:45:09;99207.44;;;19.46;100.00
8320;BME280;4197;42.130;24.746;2023-06-14T04:47:37;99205.81;;;19.48;100.00
8320;BME280;4197;42.130;24.746;2023-06-14T04:50:07;99204.97;;;19.51;100.00
8320;BME280;4197;42.130;24.746;2023-06-14T04:52:37;99201.25;;;19.61;100.00
8320;BME280;4197;42.130;24.746;2023-06-14T04:55:05;99207.31;;;19.76;100.00
8320;BME280;4197;42.130;24.746;2023-06-14T04:57:34;99204.69;;;19.89;100.00
8320;BME280;4197;42.130;24.746;2023-06-14T05:00:03;99213.88;;;20.02;100.00
8320;BME280;4197;42.130;24.746;2023-06-14T05:02:33;99219.72;;;20.04;100.00
8320;BME280;4197;42.130;24.746;2023-06-14T05:05:02;99222.69;;;20.14;100.00
8320;BME280;4197;42.130;24.746;2023-06-14T05:07:33;99214.44;;;20.14;100.00
8320;BME280;4197;42.130;24.746;2023-06-14T05:10:01;99219.53;;;20.15;100.00
8320;BME280;4197;42.130;24.746;2023-06-14T05:12:30;99220.78;;;20.11;100.00
8320;BME280;4197;42.130;24.746;2023-06-14T05:14:58;99219.72;;;20.04;100.00
8320;BME280;4197;42.130;24.746;2023-06-14T05:17:26;99226.16;;;20.18;100.00
8320;BME280;4197;42.130;24.746;2023-06-14T05:19:56;99220.34;;;20.32;100.00
8320;BME280;4197;42.130;24.746;2023-06-14T05:22:24;99233.03;;;20.46;100.00
8320;BME280;4197;42.130;24.746;2023-06-14T05:24:52;99234.81;;;20.56;100.00
8320;BME280;4197;42.130;24.746;2023-06-14T05:27:20;99231.66;;;20.74;100.00
8320;BME280;4197;42.130;24.746;2023-06-14T05:29:49;99238.81;;;20.71;100.00
8320;BME280;4197;42.130;24.746;2023-06-14T05:32:17;99244.72;;;20.70;100.00
8320;BME280;4197;42.130;24.746;2023-06-14T05:34:45;99239.22;;;20.70;100.00
8320;BME280;4197;42.130;24.746;2023-06-14T05:37:15;99241.84;;;20.77;100.00
8320;BME280;4197;42.130;24.746;2023-06-14T05:39:44;99239.84;;;20.78;100.00
8320;BME280;4197;42.130;24.746;2023-06-14T05:42:12;99252.16;;;20.89;100.00
8320;BME280;4197;42.130;24.746;2023-06-14T05:44:40;99249.00;;;20.91;100.00
8320;BME280;4197;42.130;24.746;2023-06-14T05:47:08;99251.66;;;20.94;100.00
8320;BME280;4197;42.130;24.746;2023-06-14T05:49:36;99258.22;;;20.84;100.00
8320;BME280;4197;42.130;24.746;2023-06-14T05:52:05;99262.19;;;21.00;100.00
8320;BME280;4197;42.130;24.746;2023-06-14T05:54:35;99265.97;;;21.06;100.00
8320;BME280;4197;42.130;24.746;2023-06-14T05:57:03;99268.59;;;21.29;100.00
8320;BME280;4197;42.130;24.746;2023-06-14T05:59:32;99271.13;;;21.40;100.00
8320;BME280;4197;42.130;24.746;2023-06-14T06:02:01;99265.50;;;21.44;100.00
8320;BME280;4197;42.130;24.746;2023-06-14T06:04:29;99270.41;;;21.52;100.00
8320;BME280;4197;42.130;24.746;2023-06-14T06:06:57;99261.78;;;21.50;100.00
8320;BME280;4197;42.130;24.746;2023-06-14T06:09:26;99262.22;;;21.49;100.00
8320;BME280;4197;42.130;24.746;2023-06-14T06:11:55;99264.63;;;21.63;100.00
8320;BME280;4197;42.130;24.746;2023-06-14T06:14:23;99253.94;;;21.65;100.00
8320;BME280;4197;42.130;24.746;2023-06-14T06:16:52;99264.38;;;21.41;100.00
8320;BME280;4197;42.130;24.746;2023-06-14T06:19:20;99268.88;;;21.51;100.00
8320;BME280;4197;42.130;24.746;2023-06-14T06:21:48;99272.72;;;21.70;100.00
8320;BME280;4197;42.130;24.746;2023-06-14T06:24:17;99268.66;;;21.75;100.00
8320;BME280;4197;42.130;24.746;2023-06-14T06:26:45;99270.50;;;21.65;100.00
8320;BME280;4197;42.130;24.746;2023-06-14T06:29:14;99271.84;;;21.90;100.00
8320;BME280;4197;42.130;24.746;2023-06-14T06:34:54;99273.66;;;22.25;100.00
8320;BME280;4197;42.130;24.746;2023-06-14T06:37:22;99274.66;;;22.32;100.00
8320;BME280;4197;42.130;24.746;2023-06-14T06:39:51;99278.69;;;22.56;100.00
8320;BME280;4197;42.130;24.746;2023-06-14T06:42:19;99287.00;;;22.94;100.00
8320;BME280;4197;42.130;24.746;2023-06-14T06:44:49;99283.41;;;22.98;100.00
8320;BME280;4197;42.130;24.746;2023-06-14T06:47:17;99284.78;;;22.77;100.00
8320;BME280;4197;42.130;24.746;2023-06-14T06:49:45;99276.84;;;22.79;100.00
8320;BME280;4197;42.130;24.746;2023-06-14T06:52:13;99278.38;;;22.80;100.00
8320;BME280;4197;42.130;24.746;2023-06-14T06:54:42;99279.16;;;22.80;100.00
8320;BME280;4197;42.130;24.746;2023-06-14T06:57:10;99281.69;;;22.87;100.00
8320;BME280;4197;42.130;24.746;2023-06-14T06:59:38;99290.91;;;23.10;100.00
8320;BME280;4197;42.130;24.746;2023-06-14T07:02:08;99286.91;;;23.36;100.00
8320;BME280;4197;42.130;24.746;2023-06-14T07:04:36;99289.44;;;23.56;100.00
8320;BME280;4197;42.130;24.746;2023-06-14T07:07:04;99287.03;;;23.80;100.00
8320;BME280;4197;42.130;24.746;2023-06-14T07:09:32;99287.84;;;23.81;100.00
8320;BME280;4197;42.130;24.746;2023-06-14T07:12:01;99290.28;;;23.79;100.00
8320;BME280;4197;42.130;24.746;2023-06-14T07:14:29;99280.56;;;23.62;100.00
8320;BME280;4197;42.130;24.746;2023-06-14T07:16:57;99283.63;;;23.76;100.00
8320;BME280;4197;42.130;24.746;2023-06-14T07:19:26;99290.47;;;23.85;100.00
8320;BME280;4197;42.130;24.746;2023-06-14T07:21:54;99287.19;;;23.64;100.00
8320;BME280;4197;42.130;24.746;2023-06-14T07:24:22;99281.94;;;23.92;100.00
8320;BME280;4197;42.130;24.746;2023-06-14T07:26:51;99283.69;;;24.20;100.00
8320;BME280;4197;42.130;24.746;2023-06-14T07:29:20;99280.78;;;24.24;100.00
8320;BME280;4197;42.130;24.746;2023-06-14T07:31:48;99274.22;;;24.09;100.00
8320;BME280;4197;42.130;24.746;2023-06-14T07:34:16;99276.09;;;24.12;100.00
8320;BME280;4197;42.130;24.746;2023-06-14T07:36:46;99276.53;;;24.10;100.00
8320;BME280;4197;42.130;24.746;2023-06-14T07:39:14;99281.09;;;24.04;100.00
8320;BME280;4197;42.130;24.746;2023-06-14T07:41:42;99278.66;;;23.71;100.00
8320;BME280;4197;42.130;24.746;2023-06-14T07:44:11;99270.69;;;23.73;100.00
8320;BME280;4197;42.130;24.746;2023-06-14T07:46:40;99276.19;;;23.86;100.00
8320;BME280;4197;42.130;24.746;2023-06-14T07:49:08;99279.25;;;24.23;100.00
8320;BME280;4197;42.130;24.746;2023-06-14T07:51:36;99277.94;;;24.15;100.00
8320;BME280;4197;42.130;24.746;2023-06-14T07:54:06;99270.59;;;24.21;100.00
8320;BME280;4197;42.130;24.746;2023-06-14T07:56:35;99278.97;;;24.30;100.00
8320;BME280;4197;42.130;24.746;2023-06-14T07:59:03;99271.91;;;24.51;100.00
8320;BME280;4197;42.130;24.746;2023-06-14T08:01:32;99282.22;;;24.51;100.00
8320;BME280;4197;42.130;24.746;2023-06-14T08:04:01;99276.78;;;24.03;100.00
8320;BME280;4197;42.130;24.746;2023-06-14T08:06:29;99280.16;;;24.20;100.00
8320;BME280;4197;42.130;24.746;2023-06-14T08:08:58;99273.94;;;24.60;100.00
8320;BME280;4197;42.130;24.746;2023-06-14T08:11:27;99278.56;;;24.94;100.00
8320;BME280;4197;42.130;24.746;2023-06-14T08:13:55;99285.34;;;25.24;100.00
8320;BME280;4197;42.130;24.746;2023-06-14T08:16:24;99283.59;;;25.58;100.00
8320;BME280;4197;42.130;24.746;2023-06-14T08:18:52;99285.13;;;25.09;100.00
8320;BME280;4197;42.130;24.746;2023-06-14T08:21:20;99295.19;;;24.85;100.00
8320;BME280;4197;42.130;24.746;2023-06-14T08:23:48;99293.59;;;25.06;100.00
8320;BME280;4197;42.130;24.746;2023-06-14T08:26:19;99296.34;;;25.46;100.00
8320;BME280;4197;42.130;24.746;2023-06-14T08:28:50;99300.59;;;25.88;100.00
8320;BME280;4197;42.130;24.746;2023-06-14T08:31:18;99302.59;;;25.87;100.00
8320;BME280;4197;42.130;24.746;2023-06-14T08:33:46;99304.25;;;25.66;100.00
8320;BME280;4197;42.130;24.746;2023-06-14T08:36:14;99304.63;;;25.28;100.00
8320;BME280;4197;42.130;24.746;2023-06-14T08:38:43;99311.28;;;25.30;100.00
8320;BME280;4197;42.130;24.746;2023-06-14T08:41:12;99302.53;;;25.50;100.00
8320;BME280;4197;42.130;24.746;2023-06-14T08:43:41;99308.56;;;25.58;100.00
8320;BME280;4197;42.130;24.746;2023-06-14T08:46:11;99312.59;;;25.75;100.00
8320;BME280;4197;42.130;24.746;2023-06-14T08:48:43;99314.13;;;25.76;100.00
8320;BME280;4197;42.130;24.746;2023-06-14T08:51:12;99314.97;;;26.14;100.00
8320;BME280;4197;42.130;24.746;2023-06-14T08:53:43;99312.78;;;26.36;100.00
8320;BME280;4197;42.130;24.746;2023-06-14T08:56:11;99305.19;;;26.46;100.00
8320;BME280;4197;42.130;24.746;2023-06-14T08:58:43;99303.81;;;26.60;100.00
8320;BME280;4197;42.130;24.746;2023-06-14T09:01:13;99306.28;;;26.48;100.00
8320;BME280;4197;42.130;24.746;2023-06-14T09:03:44;99302.00;;;26.11;100.00
8320;BME280;4197;42.130;24.746;2023-06-14T09:06:15;99305.53;;;26.20;100.00
8320;BME280;4197;42.130;24.746;2023-06-14T09:08:46;99303.38;;;26.15;100.00
8320;BME280;4197;42.130;24.746;2023-06-14T09:11:17;99304.91;;;26.53;100.00
8320;BME280;4197;42.130;24.746;2023-06-14T09:13:46;99303.22;;;26.28;100.00
8320;BME280;4197;42.130;24.746;2023-06-14T09:16:16;99295.38;;;26.08;100.00
8320;BME280;4197;42.130;24.746;2023-06-14T09:18:47;99292.88;;;26.19;100.00
8320;BME280;4197;42.130;24.746;2023-06-14T09:21:16;99294.41;;;26.39;100.00
8320;BME280;4197;42.130;24.746;2023-06-14T09:23:45;99291.31;;;26.37;100.00
8320;BME280;4197;42.130;24.746;2023-06-14T09:26:16;99292.75;;;26.14;100.00
8320;BME280;4197;42.130;24.746;2023-06-14T09:28:47;99287.00;;;26.26;100.00
8320;BME280;4197;42.130;24.746;2023-06-14T09:31:18;99282.25;;;26.09;100.00
8320;BME280;4197;42.130;24.746;2023-06-14T09:33:48;99282.53;;;26.01;100.00
8320;BME280;4197;42.130;24.746;2023-06-14T09:36:17;99279.63;;;26.14;100.00
8320;BME280;4197;42.130;24.746;2023-06-14T09:38:51;99282.53;;;26.20;100.00
8320;BME280;4197;42.130;24.746;2023-06-14T09:41:20;99284.84;;;26.12;100.00
8320;BME280;4197;42.130;24.746;2023-06-14T09:43:48;99280.53;;;26.11;100.00
8320;BME280;4197;42.130;24.746;2023-06-14T09:46:25;99281.31;;;26.12;100.00
8320;BME280;4197;42.130;24.746;2023-06-14T09:48:54;99278.06;;;25.95;100.00
8320;BME280;4197;42.130;24.746;2023-06-14T09:51:23;99274.22;;;25.92;100.00
8320;BME280;4197;42.130;24.746;2023-06-14T09:53:52;99284.56;;;25.92;100.00
8320;BME280;4197;42.130;24.746;2023-06-14T09:56:23;99280.06;;;26.03;100.00
8320;BME280;4197;42.130;24.746;2023-06-14T09:58:56;99278.53;;;25.84;100.00
8320;BME280;4197;42.130;24.746;2023-06-14T10:01:35;99275.91;;;26.17;100.00
8320;BME280;4197;42.130;24.746;2023-06-14T10:04:09;99272.19;;;26.20;100.00
8320;BME280;4197;42.130;24.746;2023-06-14T10:06:43;99270.28;;;26.45;100.00
8320;BME280;4197;42.130;24.746;2023-06-14T10:09:13;99271.81;;;26.64;100.00
8320;BME280;4197;42.130;24.746;2023-06-14T10:11:42;99267.91;;;26.80;100.00
8320;BME280;4197;42.130;24.746;2023-06-14T10:14:12;99272.97;;;26.91;100.00
8320;BME280;4197;42.130;24.746;2023-06-14T10:16:49;99263.56;;;27.12;100.00
8320;BME280;4197;42.130;24.746;2023-06-14T10:19:25;99270.56;;;27.41;100.00
8320;BME280;4197;42.130;24.746;2023-06-14T10:22:04;99269.91;;;27.70;100.00
8320;BME280;4197;42.130;24.746;2023-06-14T10:24:39;99270.41;;;28.08;100.00
8320;BME280;4197;42.130;24.746;2023-06-14T10:27:09;99267.28;;;28.44;98.69
8320;BME280;4197;42.130;24.746;2023-06-14T10:30:02;99263.31;;;28.51;92.80
8320;BME280;4197;42.130;24.746;2023-06-14T10:32:33;99266.03;;;28.45;92.85
8320;BME280;4197;42.130;24.746;2023-06-14T10:35:05;99259.88;;;28.56;90.23
8320;BME280;4197;42.130;24.746;2023-06-14T10:37:34;99254.09;;;28.30;91.31
8320;BME280;4197;42.130;24.746;2023-06-14T10:40:03;99263.78;;;28.20;91.88
8320;BME280;4197;42.130;24.746;2023-06-14T10:42:32;99263.00;;;28.19;89.04
8320;BME280;4197;42.130;24.746;2023-06-14T10:45:01;99260.44;;;28.16;79.50
8320;BME280;4197;42.130;24.746;2023-06-14T10:47:30;99259.38;;;28.13;74.66
8320;BME280;4197;42.130;24.746;2023-06-14T10:50:06;99253.09;;;28.18;74.90
8320;BME280;4197;42.130;24.746;2023-06-14T10:52:39;99243.31;;;28.23;75.21
8320;BME280;4197;42.130;24.746;2023-06-14T10:55:13;99248.88;;;28.38;72.32
8320;BME280;4197;42.130;24.746;2023-06-14T10:57:44;99250.53;;;28.59;71.48
8320;BME280;4197;42.130;24.746;2023-06-14T11:00:19;99248.03;;;28.61;67.20
8320;BME280;4197;42.130;24.746;2023-06-14T11:06:13;99242.19;;;28.44;66.78
8320;BME280;4197;42.130;24.746;2023-06-14T11:09:11;99241.31;;;28.38;64.67
8320;BME280;4197;42.130;24.746;2023-06-14T11:11:48;99234.19;;;28.22;65.20
8320;BME280;4197;42.130;24.746;2023-06-14T11:14:17;99246.75;;;28.18;63.56
8320;BME280;4197;42.130;24.746;2023-06-14T11:16:50;99242.91;;;27.76;64.11
8320;BME280;4197;42.130;24.746;2023-06-14T11:19:19;99236.78;;;27.48;66.22
8320;BME280;4197;42.130;24.746;2023-06-14T11:21:50;99233.34;;;27.53;65.65
8320;BME280;4197;42.130;24.746;2023-06-14T11:24:19;99226.50;;;27.40;68.80
8320;BME280;4197;42.130;24.746;2023-06-14T11:26:49;99226.47;;;27.64;69.40
8320;BME280;4197;42.130;24.746;2023-06-14T11:29:20;99227.91;;;27.98;67.80
8320;BME280;4197;42.130;24.746;2023-06-14T11:31:48;99217.66;;;28.19;64.58
8320;BME280;4197;42.130;24.746;2023-06-14T11:34:17;99219.19;;;28.20;64.69
8320;BME280;4197;42.130;24.746;2023-06-14T11:36:45;99215.59;;;28.05;66.04
8320;BME280;4197;42.130;24.746;2023-06-14T11:39:15;99220.78;;;27.58;65.34
8320;BME280;4197;42.130;24.746;2023-06-14T11:41:45;99213.72;;;27.00;67.90
8320;BME280;4197;42.130;24.746;2023-06-14T11:44:13;99213.13;;;26.96;67.47
8320;BME280;4197;42.130;24.746;2023-06-14T11:46:41;99210.56;;;26.83;68.43
8320;BME280;4197;42.130;24.746;2023-06-14T11:49:09;99210.94;;;27.00;68.29
8320;BME280;4197;42.130;24.746;2023-06-14T11:51:37;99197.97;;;27.30;68.96
8320;BME280;4197;42.130;24.746;2023-06-14T11:54:06;99196.00;;;27.60;68.77
8320;BME280;4197;42.130;24.746;2023-06-14T11:56:37;99196.69;;;27.94;67.85
8320;BME280;4197;42.130;24.746;2023-06-14T11:59:05;99186.28;;;28.09;64.40
8320;BME280;4197;42.130;24.746;2023-06-14T12:01:36;99192.34;;;27.93;65.74
8320;BME280;4197;42.130;24.746;2023-06-14T12:04:06;99196.78;;;27.99;65.59
8320;BME280;4197;42.130;24.746;2023-06-14T12:06:35;99196.28;;;27.86;64.76
8320;BME280;4197;42.130;24.746;2023-06-14T12:09:07;99198.44;;;27.67;64.46
8320;BME280;4197;42.130;24.746;2023-06-14T12:11:41;99189.78;;;27.65;68.56
8320;BME280;4197;42.130;24.746;2023-06-14T12:14:10;99178.28;;;27.72;68.03
8320;BME280;4197;42.130;24.746;2023-06-14T12:16:39;99181.19;;;27.93;67.17
8320;BME280;4197;42.130;24.746;2023-06-14T12:19:13;99190.72;;;28.16;65.63
8320;BME280;4197;42.130;24.746;2023-06-14T12:21:41;99185.22;;;28.36;64.04
8320;BME280;4197;42.130;24.746;2023-06-14T12:24:12;99174.66;;;27.96;62.88
8320;BME280;4197;42.130;24.746;2023-06-14T12:26:42;99170.34;;;27.95;65.50
8320;BME280;4197;42.130;24.746;2023-06-14T12:29:10;99167.25;;;27.39;66.23
8320;BME280;4197;42.130;24.746;2023-06-14T12:31:40;99168.34;;;27.18;66.94
8320;BME280;4197;42.130;24.746;2023-06-14T12:34:09;99162.81;;;27.32;66.40
8320;BME280;4197;42.130;24.746;2023-06-14T12:36:38;99162.03;;;27.32;67.52
8320;BME280;4197;42.130;24.746;2023-06-14T12:39:11;99158.13;;;27.14;65.32
8320;BME280;4197;42.130;24.746;2023-06-14T12:41:39;99158.47;;;27.07;64.96
8320;BME280;4197;42.130;24.746;2023-06-14T12:44:10;99155.22;;;27.09;66.05
8320;BME280;4197;42.130;24.746;2023-06-14T12:46:38;99140.28;;;27.45;67.07
8320;BME280;4197;42.130;24.746;2023-06-14T12:49:09;99135.75;;;27.87;63.87
8320;BME280;4197;42.130;24.746;2023-06-14T12:51:38;99134.31;;;28.06;61.84
8320;BME280;4197;42.130;24.746;2023-06-14T12:54:07;99140.16;;;28.23;60.31
8320;BME280;4197;42.130;24.746;2023-06-14T12:56:35;99130.34;;;28.42;59.99
8320;BME280;4197;42.130;24.746;2023-06-14T12:59:03;99128.41;;;28.49;59.03
8320;BME280;4197;42.130;24.746;2023-06-14T13:01:34;99131.47;;;28.51;58.92
8320;BME280;4197;42.130;24.746;2023-06-14T13:04:02;99128.53;;;28.10;56.55
8320;BME280;4197;42.130;24.746;2023-06-14T13:06:31;99132.13;;;27.56;58.62
8320;BME280;4197;42.130;24.746;2023-06-14T13:09:00;99126.38;;;27.21;61.66
8320;BME280;4197;42.130;24.746;2023-06-14T13:11:28;99130.94;;;27.33;61.03
8320;BME280;4197;42.130;24.746;2023-06-14T13:13:57;99129.47;;;26.99;60.70
8320;BME280;4197;42.130;24.746;2023-06-14T13:16:31;99131.00;;;27.00;63.24
8320;BME280;4197;42.130;24.746;2023-06-14T13:19:01;99129.22;;;27.36;63.68
8320;BME280;4197;42.130;24.746;2023-06-14T13:21:29;99129.66;;;27.73;62.79